ADDS METAR Data INFO
IDs: Format: Raw Decoded Include TAF

Data at: 0327 UTC 19 Jul 2018

KIBM 190315Z AUTO 00000KT 10SM CLR 21/11 A3010 RMK AO2 T02140106
KIBM 190255Z AUTO 00000KT 10SM CLR 24/09 A3009 RMK AO2 T02360093
KIBM 190235Z AUTO 00000KT 10SM CLR 24/10 A3008 RMK AO2 T02400103
KIBM 190210Z AUTO 03003KT 10SM CLR 26/10 A3008 RMK AO2 T02560095
KIBM 190155Z AUTO 03004KT 10SM CLR 26/10 A3008 RMK AO2 T02620096
KIBM 190135Z AUTO 02005KT 10SM CLR 28/08 A3008 RMK AO2 T02790083
KIBM 190115Z AUTO 01005KT 10SM CLR 29/08 A3008 RMK AO2 T02920083
KIBM 190055Z AUTO 05007KT 10SM CLR 30/09 A3007 RMK AO2 T02980086
KIBM 190035Z AUTO 02007KT 10SM CLR 30/09 A3007 RMK AO2 T03000087
KIBM 190015Z AUTO 05003KT 10SM CLR 30/08 A3008 RMK AO2 T03030083
KIBM 182355Z AUTO 36005KT 10SM CLR 31/08 A3007 RMK AO2 T03070082 10317 20283
KIBM 182335Z AUTO 36005KT 10SM CLR 31/08 A3008 RMK AO2 T03100082
KIBM 182315Z AUTO 02004KT 10SM CLR 31/08 A3008 RMK AO2 T03110081
KIBM 182255Z AUTO 02008KT 10SM CLR 31/09 A3008 RMK AO2 T03110085
KIBM 182235Z AUTO 04003G08KT 10SM CLR 31/09 A3008 RMK AO2 T03100085
KIBM 182215Z AUTO 02007KT 10SM CLR 31/09 A3008 RMK AO2 T03080085
KIBM 182155Z AUTO 01007KT 10SM CLR 31/09 A3009 RMK AO2 T03100085
KIBM 182135Z AUTO 33011G14KT 10SM CLR 32/09 A3010 RMK AO2 T03170087
KIBM 182115Z AUTO 35008KT 10SM CLR 31/08 A3010 RMK AO2 T03110081
KIBM 182055Z AUTO 35006G14KT 10SM CLR 31/08 A3010 RMK AO2 T03110080
KIBM 182035Z AUTO 35006G09KT 10SM SCT100 31/08 A3010 RMK AO2 T03120082
KIBM 182015Z AUTO 02007KT 10SM SCT100 31/09 A3011 RMK AO2 T03060088
KIBM 181955Z AUTO 01007KT 340V040 10SM SCT100 30/09 A3011 RMK AO2 T03030092
KIBM 181935Z AUTO 03010G15KT 10SM SCT090 SCT110 30/09 A3011 RMK AO2 T03010091
KIBM 181915Z AUTO 01008KT 320V050 10SM SCT090 31/09 A3011 RMK AO2 T03090094
KIBM 181855Z AUTO 02006KT 10SM CLR 30/10 A3011 RMK AO2 T03020097
KIBM 181835Z AUTO 03006KT 10SM CLR 29/11 A3012 RMK AO2 T02870111
KIBM 181815Z AUTO 00000KT 10SM CLR 29/11 A3013 RMK AO2 T02850105
KIBM 181755Z AUTO 34007KT 290V360 10SM CLR 28/12 A3013 RMK AO2 T02830116 10283 20145
KIBM 181735Z AUTO 32006KT 10SM CLR 27/12 A3014 RMK AO2 T02740123
KIBM 181715Z AUTO 30008KT 10SM CLR 27/12 A3015 RMK AO2 T02730120
KIBM 181655Z AUTO 26005KT 10SM CLR 26/14 A3015 RMK AO2 T02590136
KIBM 181635Z AUTO 24006KT 10SM CLR 24/15 A3015 RMK AO2 T02410150
KIBM 181615Z AUTO 25006KT 10SM CLR 23/15 A3015 RMK AO2 T02320153
KIBM 181555Z AUTO 21006KT 10SM CLR 22/16 A3015 RMK AO2 T02240159
KIBM 181535Z AUTO 24004KT 10SM SCT012 22/16 A3016 RMK AO2 T02150156
KIBM 181515Z AUTO 23005KT 10SM BKN010 20/16 A3016 RMK AO2 T02040159
KIBM 181455Z AUTO 21008KT 10SM OVC010 20/17 A3016 RMK AO2 T01980166
KIBM 181435Z AUTO 19008KT 10SM OVC007 19/17 A3017 RMK AO2 T01880168
KIBM 181415Z AUTO 18008KT 10SM OVC005 18/17 A3016 RMK AO2 T01820168
KIBM 181355Z AUTO 19008KT 10SM OVC005 18/17 A3016 RMK AO2 T01800167
KIBM 181335Z AUTO 19007KT 10SM OVC005 17/16 A3016 RMK AO2 T01700161
KIBM 181315Z AUTO 20005KT 10SM OVC005 16/16 A3017 RMK AO2 T01620156
KIBM 181255Z AUTO 19006KT 10SM BKN007 BKN012 16/15 A3017 RMK AO2 T01560151
KIBM 181235Z AUTO 16004KT 10SM BKN005 BKN014 15/15 A3016 RMK AO2 T01510149
KIBM 181215Z AUTO 00000KT 7SM BKN003 BKN014 15/15 A3016 RMK AO2 T01460145
KIBM 181155Z AUTO 13004KT 5SM BR OVC003 15/15 A3016 RMK AO2 T01460145 10180 20146
KIBM 181135Z AUTO 13008KT 7SM OVC003 15/15 A3016 RMK AO2 T01500147
KIBM 181115Z AUTO 12010KT 1SM BR OVC003 15/15 A3016 RMK AO2 T01520150
KIBM 181055Z AUTO 11010KT 1/4SM -DZ OVC003 16/15 A3016 RMK AO2 T01550154
KIBM 181035Z AUTO 10012G16KT 1/4SM DZ OVC003 16/16 A3016 RMK AO2 LTG DSNT E T01600157
KIBM 181015Z AUTO 09011G15KT 3SM BR SCT003 OVC015 17/17 A3016 RMK AO2 T01710166
KIBM 180955Z AUTO 09009KT 7SM OVC015 18/17 A3016 RMK AO2 T01780173
KIBM 180935Z AUTO 09010KT 10SM OVC013 18/17 A3017 RMK AO2 T01780171
KIBM 180915Z AUTO 06009KT 10SM BKN013 OVC120 18/17 A3018 RMK AO2 T01780172
KIBM 180855Z AUTO 08006KT 10SM SCT013 SCT018 BKN120 17/16 A3018 RMK AO2 T01680162
KIBM 180835Z AUTO 00000KT 10SM SCT015 BKN120 17/16 A3017 RMK AO2 LTG DSNT NE T01700159
KIBM 180815Z AUTO 00000KT 10SM SCT014 17/16 A3016 RMK AO2 LTG DSNT NE T01730161
KIBM 180755Z AUTO 00000KT 10SM CLR 17/16 A3016 RMK AO2 LTG DSNT N AND E T01720162
KIBM 180735Z AUTO 01003KT 10SM CLR 18/16 A3016 RMK AO2 LTG DSNT E T01780162
KIBM 180715Z AUTO 19007KT 10SM CLR 18/16 A3014 RMK AO2 T01780160
KIBM 180655Z AUTO 17009KT 10SM CLR 18/16 A3014 RMK AO2 LTG DSNT NE T01760157 402900135
KIBM 180635Z AUTO 15009KT 10SM CLR 18/16 A3015 RMK AO2 LTG DSNT N T01750155
KIBM 180615Z AUTO 14009KT 10SM CLR 17/15 A3015 RMK AO2 LTG DSNT N T01720151
KIBM 180555Z AUTO 15008KT 10SM CLR 18/15 A3016 RMK AO2 LTG DSNT N AND NE T01780146 10250 20177
KIBM 180535Z AUTO 17008KT 10SM CLR 18/15 A3015 RMK AO2 LTG DSNT N T01800147
KIBM 180515Z AUTO 18008KT 10SM CLR 18/15 A3015 RMK AO2 T01810148
KIBM 180455Z AUTO 17009KT 10SM CLR 18/15 A3015 RMK AO2 T01800153
KIBM 180435Z AUTO 17008KT 10SM CLR 19/16 A3016 RMK AO2 T01870156
KIBM 180415Z AUTO 17009KT 10SM CLR 19/16 A3015 RMK AO2 T01940161
KIBM 180355Z AUTO 19011KT 10SM CLR 20/17 A3015 RMK AO2 T02010170
KIBM 180335Z AUTO 17011G14KT 10SM CLR 21/16 A3016 RMK AO2 T02050163
KIBM 180315Z AUTO 16011KT 10SM CLR 21/16 A3016 RMK AO2 T02050161
KIBM 180255Z AUTO 15009KT 10SM CLR 21/16 A3015 RMK AO2 T02080160
KIBM 180235Z AUTO 15010KT 10SM CLR 21/16 A3015 RMK AO2 T02140160
KIBM 180215Z AUTO 16010KT 10SM CLR 22/16 A3014 RMK AO2 T02200160
KIBM 180155Z AUTO 16013G18KT 10SM CLR 23/16 A3014 RMK AO2 LTG DSNT S T02280162
KIBM 180135Z AUTO 16011KT 10SM CLR 24/17 A3015 RMK AO2 T02350168
KIBM 180115Z AUTO 15010KT 10SM CLR 24/17 A3015 RMK AO2 LTG DSNT S T02420167
KIBM 180055Z AUTO 17010KT 10SM CLR 25/16 A3015 RMK AO2 T02480160
KIBM 180035Z AUTO 16010KT 10SM CLR 25/15 A3016 RMK AO2 T02500154
KIBM 180015Z AUTO 15015G18KT 10SM CLR 25/15 A3016 RMK AO2 LTG DSNT S T02480149
KIBM 172355Z AUTO 14010KT 10SM CLR 24/16 A3018 RMK AO2 LTG DSNT S P0002 60002 T02400158 10290 20240
KIBM 172335Z AUTO 09007KT 10SM SCT028 SCT047 BKN090 25/15 A3020 RMK AO2 P0002 T02460154
KIBM 172315Z AUTO 04003KT 7SM RA SCT065 SCT070 OVC090 25/14 A3025 RMK AO2 P0001 T02460142
KIBM 172255Z AUTO 00000KT 10SM SCT100 SCT120 25/14 A3025 RMK AO2 LTG DSNT NW T02530139
KIBM 172235Z AUTO 17004KT 10SM SCT120 26/13 A3023 RMK AO2 LTG DSNT SW AND NW T02570131
KIBM 172210Z AUTO 15006KT 10SM CLR 27/12 A3021 RMK AO2 LTG DSNT W T02650124
KIBM 172155Z AUTO 13008KT 10SM CLR 27/12 A3021 RMK AO2 LTG DSNT NW T02690124
KIBM 172135Z AUTO 14010KT 10SM CLR 28/12 A3019 RMK AO2 T02760121
KIBM 172115Z AUTO 13009G14KT 10SM CLR 28/12 A3019 RMK AO2 T02830115
KIBM 172055Z AUTO 12010G15KT 10SM CLR 28/12 A3019 RMK AO2 T02840121
KIBM 172035Z AUTO 11011G18KT 10SM CLR 29/12 A3019 RMK AO2 T02850117
KIBM 172015Z AUTO 10008G14KT 10SM CLR 28/12 A3021 RMK AO2 T02820118
KIBM 171955Z AUTO 10010G15KT 10SM CLR 28/12 A3021 RMK AO2 T02820117
KIBM 171935Z AUTO 12007KT 10SM CLR 28/12 A3022 RMK AO2 T02790118
KIBM 171915Z AUTO 08006KT 10SM CLR 28/13 A3023 RMK AO2 LTG DSNT SW T02760125
KIBM 171855Z AUTO 16007KT 10SM CLR 27/11 A3023 RMK AO2 T02710110
KIBM 171835Z AUTO 13006KT 10SM CLR 27/12 A3024 RMK AO2 T02660122
KIBM 171815Z AUTO 15005KT 10SM CLR 27/12 A3025 RMK AO2 T02650120
KIBM 171755Z AUTO 20004KT 10SM CLR 26/12 A3025 RMK AO2 T02590124 10259 20135
KIBM 171735Z AUTO 00000KT 10SM CLR 25/14 A3025 RMK AO2 T02460142
KIBM 171715Z AUTO 00000KT 10SM CLR 24/15 A3025 RMK AO2 T02420152
KIBM 171655Z AUTO 21004KT 10SM CLR 23/15 A3025 RMK AO2 T02310148
KIBM 171635Z AUTO 25003KT 10SM CLR 23/15 A3025 RMK AO2 T02250151
KIBM 171615Z AUTO 22004KT 10SM CLR 22/15 A3026 RMK AO2 T02160149
KIBM 171555Z AUTO 19003KT 10SM CLR 21/15 A3026 RMK AO2 T02100147
KIBM 171535Z AUTO 16004KT 10SM CLR 20/14 A3026 RMK AO2 T02000143